Terminal Aerodrome Forecast
Issued by NWS

Home | Current Version | Previous Version | Text Only | Print | Product List | Glossary On
Versions: 1 2 3 4 5 6 7 8 9 10 11 12 13 14 15 16 17
000
FTUS45 KSLC 250532
TAFPVU
TAF
KPVU 250532Z 2506/2606 VRB04KT P6SM SCT080 BKN100
     FM251200 27006KT P6SM VCSH SCT030 BKN060
     FM251600 30007KT 6SM -RA SCT030 OVC050
     FM252100 29008KT P6SM VCSH SCT030 BKN060
     FM260200 32006KT P6SM SCT060 BKN120=

USA.gov is the U.S. government's official web portal to all federal, state and local government web resources and services.